createdAt,value
2023-05-20T00:00:12.570Z,15.59
2023-05-20T00:03:06.729Z,15.52
2023-05-20T00:05:40.551Z,15.47
2023-05-20T00:08:14.263Z,15.42
2023-05-20T00:10:47.483Z,15.36
2023-05-20T00:13:21.592Z,15.29
2023-05-20T00:15:55.410Z,15.23
2023-05-20T00:18:29.603Z,15.17
2023-05-20T00:21:03.897Z,15.13
2023-05-20T00:23:37.623Z,15.08
2023-05-20T00:26:10.735Z,15.03
2023-05-20T00:28:44.171Z,14.96
2023-05-20T00:31:17.952Z,14.92
2023-05-20T00:33:52.305Z,14.87
2023-05-20T00:36:27.675Z,14.81
2023-05-20T00:39:02.397Z,14.76
2023-05-20T00:41:35.824Z,14.73
2023-05-20T00:44:10.411Z,14.68
2023-05-20T00:46:44.405Z,14.64
2023-05-20T00:49:19.161Z,14.61
2023-05-20T00:51:52.710Z,14.57
2023-05-20T00:54:26.701Z,14.55
2023-05-20T00:57:03.349Z,14.51
2023-05-20T00:59:38.146Z,14.50
2023-05-20T01:02:12.968Z,14.47
2023-05-20T01:04:47.786Z,14.47
2023-05-20T01:07:22.711Z,14.46
2023-05-20T01:09:56.836Z,14.45
2023-05-20T01:12:33.416Z,14.43
2023-05-20T01:15:12.643Z,14.42
2023-05-20T01:17:48.197Z,14.41
2023-05-20T01:20:23.136Z,14.40
2023-05-20T01:22:58.664Z,14.39
2023-05-20T01:25:32.729Z,14.39
2023-05-20T01:28:07.569Z,14.37
2023-05-20T01:30:46.519Z,14.37
2023-05-20T01:33:25.855Z,14.35
2023-05-20T01:36:00.610Z,14.35
2023-05-20T01:38:35.249Z,14.33
2023-05-20T01:41:09.413Z,14.32
2023-05-20T01:43:44.031Z,14.31
2023-05-20T01:46:18.574Z,14.29
2023-05-20T01:48:53.110Z,14.27
2023-05-20T01:51:26.990Z,14.26
2023-05-20T01:54:00.996Z,14.25
2023-05-20T01:56:34.567Z,14.24
2023-05-20T01:59:09.729Z,14.22
2023-05-20T02:01:43.544Z,14.20
2023-05-20T02:04:19.501Z,14.19
2023-05-20T02:06:53.236Z,14.17
2023-05-20T02:09:30.053Z,14.16
2023-05-20T02:12:03.915Z,14.14
2023-05-20T02:14:37.579Z,14.11
2023-05-20T02:17:11.814Z,14.06
2023-05-20T02:19:46.067Z,14.03
2023-05-20T02:22:19.817Z,14.00
2023-05-20T02:24:53.340Z,13.96
2023-05-20T02:27:26.936Z,13.92
2023-05-20T02:30:01.593Z,13.88
2023-05-20T02:32:36.311Z,13.86
2023-05-20T02:35:11.898Z,13.82
2023-05-20T02:37:46.013Z,13.77
2023-05-20T02:40:20.359Z,13.74
2023-05-20T02:42:54.355Z,13.70
2023-05-20T02:45:28.240Z,13.66
2023-05-20T02:48:02.431Z,13.62
2023-05-20T02:50:39.559Z,13.57
2023-05-20T02:53:13.671Z,13.54
2023-05-20T02:55:47.484Z,13.50
2023-05-20T02:58:26.547Z,13.46
2023-05-20T03:01:00.479Z,13.43
2023-05-20T03:03:34.969Z,13.41
2023-05-20T03:06:08.677Z,13.39
2023-05-20T03:08:43.585Z,13.35
2023-05-20T03:11:17.142Z,13.32
2023-05-20T03:13:50.750Z,13.30
2023-05-20T03:16:25.455Z,13.29
2023-05-20T03:18:59.586Z,13.26
2023-05-20T03:21:34.336Z,13.26
2023-05-20T03:24:09.744Z,13.24
2023-05-20T03:26:44.119Z,13.23
2023-05-20T03:29:18.113Z,13.22
2023-05-20T03:31:52.171Z,13.21
2023-05-20T03:34:28.161Z,13.20
2023-05-20T03:37:01.653Z,13.22
2023-05-20T03:39:36.685Z,13.20
2023-05-20T03:42:10.948Z,13.20
2023-05-20T03:44:44.313Z,13.22
2023-05-20T03:47:18.502Z,13.23
2023-05-20T03:49:52.721Z,13.24
2023-05-20T03:52:26.538Z,13.25
2023-05-20T03:55:01.393Z,13.26
2023-05-20T03:57:36.844Z,13.28
2023-05-20T04:00:14.823Z,13.30
2023-05-20T04:02:51.597Z,13.31
2023-05-20T04:05:26.882Z,13.34
2023-05-20T04:08:01.239Z,13.35
2023-05-20T04:10:35.331Z,13.37
2023-05-20T04:13:09.154Z,13.40
2023-05-20T04:15:43.259Z,13.41
2023-05-20T04:18:17.352Z,13.43
2023-05-20T04:20:51.805Z,13.46
2023-05-20T04:23:26.194Z,13.48
2023-05-20T04:26:02.891Z,13.51
2023-05-20T04:28:37.950Z,13.53
2023-05-20T04:31:13.051Z,13.56
2023-05-20T04:33:47.061Z,13.60
2023-05-20T04:36:21.074Z,13.63
2023-05-20T04:38:55.484Z,13.67
2023-05-20T04:41:29.413Z,13.72
2023-05-20T04:44:04.267Z,13.76
2023-05-20T04:46:38.603Z,13.81
2023-05-20T04:49:12.907Z,13.87
2023-05-20T04:51:50.327Z,13.93
2023-05-20T04:54:25.585Z,14.02
2023-05-20T04:56:59.698Z,14.10
2023-05-20T04:59:33.856Z,14.18
2023-05-20T05:02:08.266Z,14.26
2023-05-20T05:04:41.968Z,14.35
2023-05-20T05:07:15.828Z,14.44
2023-05-20T05:09:49.928Z,14.53
2023-05-20T05:12:23.855Z,14.63
2023-05-20T05:14:59.065Z,14.72
2023-05-20T05:17:32.977Z,14.86
2023-05-20T05:20:10.574Z,15.03
2023-05-20T05:22:45.742Z,15.20
2023-05-20T05:25:19.986Z,15.37
2023-05-20T05:27:55.656Z,15.53
2023-05-20T05:30:30.132Z,15.70
2023-05-20T05:33:04.534Z,15.85
2023-05-20T05:35:38.655Z,16.01
2023-05-20T05:38:12.737Z,16.18
2023-05-20T05:40:46.615Z,16.37
2023-05-20T05:43:20.273Z,16.60
2023-05-20T05:45:54.504Z,16.81
2023-05-20T05:48:29.003Z,17.04
2023-05-20T05:51:02.710Z,17.27
2023-05-20T05:53:37.438Z,17.50
2023-05-20T05:56:11.269Z,17.72
2023-05-20T05:58:48.620Z,17.92
2023-05-20T06:01:23.657Z,18.13
2023-05-20T06:03:58.812Z,18.35
2023-05-20T06:06:33.041Z,18.54
2023-05-20T06:09:06.988Z,18.72
2023-05-20T06:11:42.491Z,18.92
2023-05-20T06:14:17.463Z,19.10
2023-05-20T06:16:52.554Z,19.28
2023-05-20T06:19:28.518Z,19.46
2023-05-20T06:22:03.016Z,19.66
2023-05-20T06:24:37.386Z,19.85
2023-05-20T06:27:11.219Z,20.03
2023-05-20T06:29:45.389Z,20.21
2023-05-20T06:32:19.760Z,20.37
2023-05-20T06:34:53.562Z,20.51
2023-05-20T06:37:26.996Z,20.65
2023-05-20T06:40:02.686Z,20.78
2023-05-20T06:42:36.690Z,20.89
2023-05-20T06:45:14.112Z,21.02
2023-05-20T06:47:50.565Z,21.17
2023-05-20T06:50:25.237Z,21.28
2023-05-20T06:52:59.420Z,21.43
2023-05-20T06:55:33.907Z,21.56
2023-05-20T06:58:08.831Z,21.67
2023-05-20T07:00:44.320Z,21.80
2023-05-20T07:03:18.538Z,21.91
2023-05-20T07:05:54.682Z,22.04
2023-05-20T07:08:29.764Z,22.16
2023-05-20T07:11:02.930Z,22.28
2023-05-20T07:13:37.637Z,22.41
2023-05-20T07:16:12.073Z,22.49
2023-05-20T07:18:49.901Z,22.58
2023-05-20T07:21:25.516Z,22.67
2023-05-20T07:24:21.620Z,22.77
2023-05-20T07:26:56.152Z,22.85
2023-05-20T07:29:30.827Z,22.94
2023-05-20T07:32:06.769Z,23.03
2023-05-20T07:34:41.284Z,23.12
2023-05-20T07:37:16.704Z,23.22
2023-05-20T07:39:50.710Z,23.27
2023-05-20T07:42:24.228Z,23.37
2023-05-20T07:45:02.437Z,23.42
2023-05-20T07:47:36.432Z,23.46
2023-05-20T07:50:12.668Z,23.49
2023-05-20T07:52:55.886Z,23.51
2023-05-20T07:55:35.962Z,23.54
2023-05-20T07:58:10.696Z,23.55
2023-05-20T08:00:46.037Z,23.59
2023-05-20T08:03:20.269Z,23.64
2023-05-20T08:06:04.803Z,23.66
2023-05-20T08:08:40.661Z,23.66
2023-05-20T08:11:19.180Z,23.65
2023-05-20T08:13:53.591Z,23.69
2023-05-20T08:16:28.875Z,23.70
2023-05-20T08:19:02.355Z,23.75
2023-05-20T08:21:36.721Z,23.77
2023-05-20T08:24:11.147Z,23.82
2023-05-20T08:26:46.715Z,23.90
2023-05-20T08:29:20.865Z,23.98
2023-05-20T08:31:55.067Z,24.08
2023-05-20T08:34:29.285Z,24.13
2023-05-20T08:37:03.373Z,24.21
2023-05-20T08:39:37.508Z,24.33
2023-05-20T08:42:14.065Z,24.38
2023-05-20T08:44:49.298Z,24.46
2023-05-20T08:47:25.086Z,24.53
2023-05-20T08:49:59.562Z,24.61
2023-05-20T08:52:36.867Z,24.71
2023-05-20T08:55:16.459Z,24.81
2023-05-20T08:57:50.188Z,24.93
2023-05-20T09:00:28.927Z,25.03
2023-05-20T09:03:04.393Z,25.14
2023-05-20T09:05:38.495Z,25.26
2023-05-20T09:08:14.196Z,25.32
2023-05-20T09:10:47.549Z,25.41
2023-05-20T09:13:23.489Z,25.57
2023-05-20T09:15:57.594Z,25.72
2023-05-20T09:18:32.119Z,25.83
2023-05-20T09:21:08.334Z,25.98
2023-05-20T09:23:42.169Z,26.16
2023-05-20T09:26:15.287Z,26.33
2023-05-20T09:28:49.164Z,26.50
2023-05-20T09:31:27.280Z,26.65
2023-05-20T09:34:03.370Z,26.83
2023-05-20T09:36:38.474Z,26.95
2023-05-20T09:39:16.155Z,27.05
2023-05-20T09:41:57.228Z,27.14
2023-05-20T09:44:31.882Z,27.23
2023-05-20T09:47:08.642Z,27.35
2023-05-20T09:49:44.979Z,27.45
2023-05-20T09:52:21.316Z,27.57
2023-05-20T09:54:56.645Z,27.71
2023-05-20T09:57:32.007Z,27.81
2023-05-20T10:00:08.743Z,27.95
2023-05-20T10:02:52.429Z,27.93
2023-05-20T10:05:30.961Z,27.91
2023-05-20T10:08:33.676Z,28.02
2023-05-20T10:11:17.076Z,28.08
2023-05-20T10:14:08.909Z,28.16
2023-05-20T10:16:49.820Z,28.23
2023-05-20T10:19:32.194Z,28.33
2023-05-20T10:22:08.909Z,28.44
2023-05-20T10:24:44.749Z,28.53
2023-05-20T10:27:19.495Z,28.59
2023-05-20T10:29:56.693Z,28.64
2023-05-20T10:32:32.484Z,28.67
2023-05-20T10:35:10.788Z,28.76
2023-05-20T10:37:48.413Z,28.79
2023-05-20T10:40:23.597Z,28.82
2023-05-20T10:43:01.286Z,28.93
2023-05-20T10:45:37.623Z,29.03
2023-05-20T10:48:22.166Z,29.15
2023-05-20T10:50:59.978Z,29.25
2023-05-20T10:53:40.713Z,29.33
2023-05-20T10:56:23.153Z,29.38
2023-05-20T10:58:57.804Z,29.45
2023-05-20T11:01:32.301Z,29.55
2023-05-20T11:04:07.181Z,29.62
2023-05-20T11:06:51.308Z,29.71
2023-05-20T11:09:26.046Z,29.76
2023-05-20T11:11:59.951Z,29.83
2023-05-20T11:14:33.576Z,29.89
2023-05-20T11:17:09.607Z,29.99
2023-05-20T11:19:43.117Z,29.98
2023-05-20T11:22:17.423Z,30.03
2023-05-20T11:24:54.004Z,29.99
2023-05-20T11:27:27.395Z,30.03
2023-05-20T11:30:00.593Z,30.11
2023-05-20T11:32:34.837Z,30.19
2023-05-20T11:35:21.090Z,30.21
2023-05-20T11:38:05.327Z,30.20
2023-05-20T11:40:49.772Z,30.17
2023-05-20T11:43:26.732Z,30.23
2023-05-20T11:46:00.506Z,30.32
2023-05-20T11:48:34.247Z,30.38
2023-05-20T11:51:10.088Z,30.42
2023-05-20T11:53:44.393Z,30.43
2023-05-20T11:56:18.109Z,30.47
2023-05-20T11:58:52.580Z,30.50
2023-05-20T12:01:26.367Z,30.49
2023-05-20T12:04:01.159Z,30.49
2023-05-20T12:06:35.234Z,30.40
2023-05-20T12:09:10.715Z,30.34
2023-05-20T12:11:45.347Z,30.30
2023-05-20T12:14:19.429Z,30.29
2023-05-20T12:16:53.898Z,30.28
2023-05-20T12:19:27.256Z,30.27
2023-05-20T12:22:01.342Z,30.30
2023-05-20T12:24:35.439Z,30.34
2023-05-20T12:27:09.565Z,30.30
2023-05-20T12:29:43.006Z,30.30
2023-05-20T12:32:16.826Z,30.27
2023-05-20T12:34:50.896Z,30.26
2023-05-20T12:37:25.095Z,30.26
2023-05-20T12:39:58.788Z,30.28
2023-05-20T12:42:33.213Z,30.33
2023-05-20T12:45:08.377Z,30.34
2023-05-20T12:47:43.372Z,30.30
2023-05-20T12:50:17.210Z,30.30
2023-05-20T12:52:51.090Z,30.30
2023-05-20T12:55:25.434Z,30.33
2023-05-20T12:57:59.518Z,30.28
2023-05-20T13:00:33.656Z,29.94
2023-05-20T13:03:07.714Z,29.52
2023-05-20T13:05:41.556Z,29.14
2023-05-20T13:08:15.555Z,28.71
2023-05-20T13:10:49.988Z,28.28
2023-05-20T13:13:23.578Z,27.92
2023-05-20T13:15:58.057Z,27.51
2023-05-20T13:18:32.205Z,27.12
2023-05-20T13:21:06.017Z,26.72
2023-05-20T13:23:40.533Z,26.40
2023-05-20T13:26:13.832Z,26.09
2023-05-20T13:28:48.154Z,25.82
2023-05-20T13:31:21.942Z,25.53
2023-05-20T13:33:59.558Z,25.33
2023-05-20T13:36:33.020Z,25.18
2023-05-20T13:39:06.963Z,25.04
2023-05-20T13:41:40.760Z,24.94
2023-05-20T13:44:14.968Z,24.93
2023-05-20T13:46:48.657Z,24.90
2023-05-20T13:49:25.673Z,24.81
2023-05-20T13:51:59.102Z,24.77
2023-05-20T13:54:32.674Z,24.67
2023-05-20T13:57:08.250Z,24.56
2023-05-20T13:59:42.005Z,24.50
2023-05-20T14:02:15.595Z,24.46
2023-05-20T14:04:49.508Z,24.37
2023-05-20T14:07:23.266Z,24.26
2023-05-20T14:09:57.726Z,24.19
2023-05-20T14:12:31.955Z,24.11
2023-05-20T14:15:06.012Z,24.01
2023-05-20T14:17:39.603Z,23.93
2023-05-20T14:20:15.557Z,23.88
2023-05-20T14:22:49.294Z,23.83
2023-05-20T14:25:23.489Z,23.75
2023-05-20T14:27:56.737Z,23.72
2023-05-20T14:30:30.495Z,23.73
2023-05-20T14:33:04.454Z,23.73
2023-05-20T14:35:38.502Z,23.73
2023-05-20T14:38:12.305Z,23.76
2023-05-20T14:40:46.387Z,23.79
2023-05-20T14:43:20.679Z,23.83
2023-05-20T14:45:54.686Z,23.90
2023-05-20T14:48:28.627Z,24.00
2023-05-20T14:51:02.504Z,24.06
2023-05-20T14:53:36.518Z,24.12
2023-05-20T14:56:10.728Z,24.15
2023-05-20T14:58:44.370Z,24.15
2023-05-20T15:01:18.732Z,24.17
2023-05-20T15:03:52.650Z,24.14
2023-05-20T15:06:26.766Z,24.11
2023-05-20T15:09:00.776Z,24.09
2023-05-20T15:11:34.282Z,24.12
2023-05-20T15:14:08.032Z,24.16
2023-05-20T15:16:42.385Z,24.19
2023-05-20T15:19:18.091Z,24.24
2023-05-20T15:21:53.163Z,24.28
2023-05-20T15:24:27.076Z,24.31
2023-05-20T15:27:00.486Z,24.35
2023-05-20T15:29:34.284Z,24.40
2023-05-20T15:32:10.371Z,24.45
2023-05-20T15:34:43.985Z,24.51
2023-05-20T15:37:18.052Z,24.58
2023-05-20T15:39:51.962Z,24.60
2023-05-20T15:42:25.970Z,24.61
2023-05-20T15:45:00.272Z,24.60
2023-05-20T15:47:34.062Z,24.63
2023-05-20T15:50:11.413Z,24.63
2023-05-20T15:52:45.321Z,24.61
2023-05-20T15:55:19.800Z,24.61
2023-05-20T15:57:53.198Z,24.59
2023-05-20T16:00:27.287Z,24.56
2023-05-20T16:03:01.834Z,24.49
2023-05-20T16:05:35.558Z,24.43
2023-05-20T16:08:09.927Z,24.38
2023-05-20T16:10:43.365Z,24.33
2023-05-20T16:13:17.867Z,24.23
2023-05-20T16:15:51.513Z,24.12
2023-05-20T16:18:26.102Z,24.03
2023-05-20T16:21:00.630Z,23.92
2023-05-20T16:23:34.495Z,23.76
2023-05-20T16:26:08.147Z,23.64
2023-05-20T16:28:42.159Z,23.52
2023-05-20T16:31:15.330Z,23.42
2023-05-20T16:33:49.288Z,23.30
2023-05-20T16:36:24.156Z,23.19
2023-05-20T16:38:58.369Z,23.12
2023-05-20T16:41:32.901Z,23.02
2023-05-20T16:44:06.717Z,22.90
2023-05-20T16:46:40.312Z,22.75
2023-05-20T16:49:15.109Z,22.64
2023-05-20T16:51:50.304Z,22.55
2023-05-20T16:54:23.977Z,22.49
2023-05-20T16:56:57.592Z,22.42
2023-05-20T16:59:31.693Z,22.35
2023-05-20T17:02:05.443Z,22.28
2023-05-20T17:04:39.121Z,22.23
2023-05-20T17:07:13.852Z,22.17
2023-05-20T17:09:48.032Z,22.10
2023-05-20T17:12:22.257Z,22.06
2023-05-20T17:14:56.418Z,22.02
2023-05-20T17:17:30.788Z,21.97
2023-05-20T17:20:05.834Z,21.92
2023-05-20T17:22:39.860Z,21.87
2023-05-20T17:25:14.821Z,21.81
2023-05-20T17:27:48.667Z,21.76
2023-05-20T17:30:21.967Z,21.74
2023-05-20T17:32:56.678Z,21.70
2023-05-20T17:35:31.866Z,21.64
2023-05-20T17:38:05.419Z,21.60
2023-05-20T17:40:39.465Z,21.56
2023-05-20T17:43:13.440Z,21.50
2023-05-20T17:45:47.884Z,21.45
2023-05-20T17:48:22.280Z,21.42
2023-05-20T17:50:58.355Z,21.35
2023-05-20T17:53:31.926Z,21.29
2023-05-20T17:56:06.558Z,21.20
2023-05-20T17:58:40.571Z,21.13
2023-05-20T18:01:15.364Z,21.05
2023-05-20T18:03:48.867Z,20.97
2023-05-20T18:06:23.277Z,20.89
2023-05-20T18:08:57.633Z,20.80
2023-05-20T18:11:32.944Z,20.66
2023-05-20T18:14:06.740Z,20.54
2023-05-20T18:16:40.589Z,20.37
2023-05-20T18:19:15.398Z,20.22
2023-05-20T18:21:49.433Z,20.10
2023-05-20T18:24:22.944Z,19.98
2023-05-20T18:26:55.850Z,19.88
2023-05-20T18:29:29.711Z,19.78
2023-05-20T18:32:03.706Z,19.71
2023-05-20T18:34:37.658Z,19.63
2023-05-20T18:37:12.238Z,19.55
2023-05-20T18:39:46.127Z,19.47
2023-05-20T18:42:19.761Z,19.40
2023-05-20T18:44:53.398Z,19.32
2023-05-20T18:47:28.499Z,19.26
2023-05-20T18:50:03.147Z,19.20
2023-05-20T18:52:36.752Z,19.10
2023-05-20T18:55:12.197Z,19.01
2023-05-20T18:57:45.277Z,18.91
2023-05-20T19:00:21.608Z,18.81
2023-05-20T19:02:58.332Z,18.70
2023-05-20T19:05:33.931Z,18.63
2023-05-20T19:08:09.590Z,18.56
2023-05-20T19:10:44.541Z,18.50
2023-05-20T19:13:18.538Z,18.45
2023-05-20T19:15:53.554Z,18.38
2023-05-20T19:18:28.213Z,18.29
2023-05-20T19:21:02.468Z,18.25
2023-05-20T19:23:36.483Z,18.21
2023-05-20T19:26:10.747Z,18.18
2023-05-20T19:28:44.416Z,18.16
2023-05-20T19:31:21.365Z,18.16
2023-05-20T19:33:55.301Z,18.14
2023-05-20T19:36:29.310Z,18.13
2023-05-20T19:39:03.728Z,18.11
2023-05-20T19:41:38.601Z,18.10
2023-05-20T19:44:12.490Z,18.07
2023-05-20T19:46:48.475Z,18.05
2023-05-20T19:49:22.437Z,18.02
2023-05-20T19:51:57.534Z,17.97
2023-05-20T19:54:31.772Z,17.92
2023-05-20T19:57:04.675Z,17.87
2023-05-20T19:59:39.084Z,17.83
2023-05-20T20:02:13.295Z,17.79
2023-05-20T20:04:47.510Z,17.75
2023-05-20T20:07:21.843Z,17.72
2023-05-20T20:09:56.449Z,17.68
2023-05-20T20:12:30.356Z,17.65
2023-05-20T20:15:04.368Z,17.64
2023-05-20T20:17:45.927Z,17.60
2023-05-20T20:20:20.317Z,17.55
2023-05-20T20:22:54.288Z,17.50
2023-05-20T20:25:28.294Z,17.45
2023-05-20T20:28:01.655Z,17.42
2023-05-20T20:30:34.976Z,17.38
2023-05-20T20:33:09.708Z,17.35
2023-05-20T20:35:43.838Z,17.31
2023-05-20T20:38:18.475Z,17.27
2023-05-20T20:40:54.101Z,17.24
2023-05-20T20:43:29.129Z,17.19
2023-05-20T20:46:03.697Z,17.15
2023-05-20T20:48:37.146Z,17.12
2023-05-20T20:51:11.360Z,17.09
2023-05-20T20:53:47.229Z,17.04
2023-05-20T20:56:20.459Z,16.99
2023-05-20T20:58:57.385Z,16.94
2023-05-20T21:01:31.450Z,16.91
2023-05-20T21:04:06.540Z,16.89
2023-05-20T21:06:40.460Z,16.87
2023-05-20T21:09:14.773Z,16.86
2023-05-20T21:11:50.399Z,16.83
2023-05-20T21:14:24.408Z,16.82
2023-05-20T21:16:58.224Z,16.79
2023-05-20T21:19:32.653Z,16.78
2023-05-20T21:22:08.171Z,16.75
2023-05-20T21:24:42.199Z,16.73
2023-05-20T21:27:15.750Z,16.70
2023-05-20T21:29:51.000Z,16.64
2023-05-20T21:32:24.844Z,16.62
2023-05-20T21:34:58.934Z,16.59
2023-05-20T21:37:33.365Z,16.54
2023-05-20T21:40:10.115Z,16.50
2023-05-20T21:42:45.183Z,16.45
2023-05-20T21:45:19.688Z,16.41
2023-05-20T21:47:53.411Z,16.37
2023-05-20T21:50:27.585Z,16.32
2023-05-20T21:53:00.783Z,16.26
2023-05-20T21:55:35.428Z,16.21
2023-05-20T21:58:09.804Z,16.17
2023-05-20T22:00:43.960Z,16.11
2023-05-20T22:03:18.079Z,16.05
2023-05-20T22:05:52.212Z,16.00
2023-05-20T22:08:28.435Z,15.94
2023-05-20T22:11:06.140Z,15.88
2023-05-20T22:13:41.804Z,15.82
2023-05-20T22:16:15.604Z,15.76
2023-05-20T22:18:49.900Z,15.73
2023-05-20T22:21:24.845Z,15.67
2023-05-20T22:23:58.512Z,15.62
2023-05-20T22:26:34.408Z,15.57
2023-05-20T22:29:08.968Z,15.50
2023-05-20T22:31:43.087Z,15.47
2023-05-20T22:34:16.729Z,15.42
2023-05-20T22:36:50.592Z,15.38
2023-05-20T22:39:25.778Z,15.32
2023-05-20T22:41:59.514Z,15.28
2023-05-20T22:44:33.648Z,15.24
2023-05-20T22:47:07.315Z,15.20
2023-05-20T22:49:42.476Z,15.16
2023-05-20T22:52:17.680Z,15.13
2023-05-20T22:54:51.175Z,15.11
2023-05-20T22:57:25.104Z,15.08
2023-05-20T22:59:58.437Z,15.05
2023-05-20T23:02:32.008Z,15.04
2023-05-20T23:05:06.898Z,15.01
2023-05-20T23:07:41.045Z,14.99
2023-05-20T23:10:15.321Z,14.98
2023-05-20T23:12:48.501Z,14.96
2023-05-20T23:15:25.620Z,14.94
2023-05-20T23:17:59.113Z,14.94
2023-05-20T23:20:32.381Z,14.92
2023-05-20T23:23:11.126Z,14.90
2023-05-20T23:25:46.394Z,14.88
2023-05-20T23:28:19.929Z,14.85
2023-05-20T23:30:53.251Z,14.84
2023-05-20T23:33:27.298Z,14.80
2023-05-20T23:36:01.328Z,14.78
2023-05-20T23:38:35.486Z,14.75
2023-05-20T23:41:10.180Z,14.72
2023-05-20T23:43:44.162Z,14.69
2023-05-20T23:46:18.739Z,14.65
2023-05-20T23:48:53.345Z,14.61
2023-05-20T23:51:28.097Z,14.58
2023-05-20T23:54:01.507Z,14.55
2023-05-20T23:56:34.860Z,14.51
2023-05-20T23:59:08.371Z,14.47
